CheckWX is a tool to help pilots better visualize weather data.  It is not intended as a substitute for an official pre-flight weather briefing.

15:51:49 UTC

KORF METAR
Norfolk International Airport
Norfolk, Virginia, USA
Current

1 hour ago

KORF 261451Z 26007KT 10SM CLR 30/22 A3004 RMK AO2 SLP173 T03000217 58001
Observed
May-26 @ 14:51 UTC
Wind
  • 260° at 7 KTS
Visibility
10 SM
Flight Rules
VFR
Cloud Levels
  • Clear skies
Temperature
30°C / 86°F
Dewpoint
22°C / 72°F
Heat Index
33°C / 92°F
Humidity
62%
Altimeter
30.04" Hg
Pressure
1017.32 hPa
Previous

2 hours ago

KORF 261351Z 24008KT 10SM CLR 29/22 A3004 RMK AO2 SLP173 T02890217
Observed
May-26 @ 13:51 UTC
Wind
  • 240° at 8 KTS
Visibility
10 SM
Flight Rules
VFR
Cloud Levels
  • Clear skies
Temperature
29°C / 84°F
Dewpoint
22°C / 72°F
Heat Index
32°C / 89°F
Humidity
66%
Altimeter
30.04" Hg
Pressure
1017.32 hPa
Previous

3 hours ago

KORF 261251Z 23012KT 10SM CLR 27/22 A3005 RMK AO2 SLP174 T02720222
Observed
May-26 @ 12:51 UTC
Wind
  • 230° at 12 KTS
Visibility
10 SM
Flight Rules
VFR
Cloud Levels
  • Clear skies
Temperature
27°C / 81°F
Dewpoint
22°C / 72°F
Heat Index
29°C / 85°F
Humidity
74%
Altimeter
30.05" Hg
Pressure
1017.62 hPa